sensor_id;sensor_type;location;lat;lon;timestamp;pressure;altitude;pressure_sealevel;temperature;humidity
21395;BME280;10858;42.714;23.180;2022-11-09T00:00:43;94988.88;;;9.60;84.57
21395;BME280;10858;42.714;23.180;2022-11-09T00:03:10;94986.47;;;9.33;85.63
21395;BME280;10858;42.714;23.180;2022-11-09T00:05:36;94994.72;;;9.41;86.42
21395;BME280;10858;42.714;23.180;2022-11-09T00:08:07;94992.69;;;9.56;86.14
21395;BME280;10858;42.714;23.180;2022-11-09T00:10:33;94995.59;;;9.53;85.74
21395;BME280;10858;42.714;23.180;2022-11-09T00:13:00;94993.84;;;9.41;85.88
21395;BME280;10858;42.714;23.180;2022-11-09T00:15:27;94989.41;;;9.41;85.59
21395;BME280;10858;42.714;23.180;2022-11-09T00:17:53;94996.63;;;9.74;84.30
21395;BME280;10858;42.714;23.180;2022-11-09T00:20:19;94994.94;;;9.73;84.28
21395;BME280;10858;42.714;23.180;2022-11-09T00:22:49;94994.03;;;9.85;83.94
21395;BME280;10858;42.714;23.180;2022-11-09T00:25:15;94996.91;;;9.82;83.22
21395;BME280;10858;42.714;23.180;2022-11-09T00:27:42;94995.22;;;9.81;83.15
21395;BME280;10858;42.714;23.180;2022-11-09T00:30:08;94994.81;;;9.64;82.74
21395;BME280;10858;42.714;23.180;2022-11-09T00:32:35;94990.41;;;9.04;85.24
21395;BME280;10858;42.714;23.180;2022-11-09T00:35:02;94999.25;;;9.16;86.31
21395;BME280;10858;42.714;23.180;2022-11-09T00:37:31;94994.97;;;9.26;85.10
21395;BME280;10858;42.714;23.180;2022-11-09T00:39:57;94998.19;;;9.18;85.62
21395;BME280;10858;42.714;23.180;2022-11-09T00:42:23;94990.75;;;9.23;85.59
21395;BME280;10858;42.714;23.180;2022-11-09T00:44:50;94994.31;;;9.35;84.93
21395;BME280;10858;42.714;23.180;2022-11-09T00:47:16;94995.22;;;9.23;85.40
21395;BME280;10858;42.714;23.180;2022-11-09T00:49:42;94999.94;;;9.30;85.64
21395;BME280;10858;42.714;23.180;2022-11-09T00:52:08;94996.59;;;9.16;85.91
21395;BME280;10858;42.714;23.180;2022-11-09T00:54:34;94989.97;;;9.10;86.11
21395;BME280;10858;42.714;23.180;2022-11-09T00:57:00;94999.66;;;9.22;85.70
21395;BME280;10858;42.714;23.180;2022-11-09T00:59:26;94991.31;;;9.16;85.92
21395;BME280;10858;42.714;23.180;2022-11-09T01:01:53;94989.91;;;9.23;85.94
21395;BME280;10858;42.714;23.180;2022-11-09T01:04:19;94987.16;;;9.24;86.04
21395;BME280;10858;42.714;23.180;2022-11-09T01:06:45;94991.59;;;9.24;85.74
21395;BME280;10858;42.714;23.180;2022-11-09T01:09:11;94991.03;;;9.31;85.50
21395;BME280;10858;42.714;23.180;2022-11-09T01:11:37;94992.78;;;9.20;84.99
21395;BME280;10858;42.714;23.180;2022-11-09T01:14:04;94990.41;;;9.04;85.07
21395;BME280;10858;42.714;23.180;2022-11-09T01:16:30;94987.53;;;8.84;85.57
21395;BME280;10858;42.714;23.180;2022-11-09T01:18:57;94985.19;;;8.79;85.84
21395;BME280;10858;42.714;23.180;2022-11-09T01:21:24;94981.25;;;8.85;85.99
21395;BME280;10858;42.714;23.180;2022-11-09T01:23:51;94985.56;;;8.98;85.92
21395;BME280;10858;42.714;23.180;2022-11-09T01:26:17;94977.97;;;8.94;85.46
21395;BME280;10858;42.714;23.180;2022-11-09T01:28:44;94984.91;;;8.71;85.78
21395;BME280;10858;42.714;23.180;2022-11-09T01:31:13;94988.72;;;8.54;85.71
21395;BME280;10858;42.714;23.180;2022-11-09T01:33:40;94984.53;;;8.39;86.57
21395;BME280;10858;42.714;23.180;2022-11-09T01:36:12;94977.66;;;8.37;86.61
21395;BME280;10858;42.714;23.180;2022-11-09T01:38:39;94977.22;;;8.43;86.22
21395;BME280;10858;42.714;23.180;2022-11-09T01:41:06;94984.44;;;8.28;86.60
21395;BME280;10858;42.714;23.180;2022-11-09T01:43:33;94977.13;;;8.32;86.55
21395;BME280;10858;42.714;23.180;2022-11-09T01:46:14;94974.91;;;8.26;87.01
21395;BME280;10858;42.714;23.180;2022-11-09T01:48:50;94976.59;;;8.39;86.98
21395;BME280;10858;42.714;23.180;2022-11-09T01:54:03;94971.63;;;8.35;87.04
21395;BME280;10858;42.714;23.180;2022-11-09T01:56:31;94977.78;;;8.35;87.17
21395;BME280;10858;42.714;23.180;2022-11-09T01:59:04;94975.88;;;8.37;87.06
21395;BME280;10858;42.714;23.180;2022-11-09T02:01:33;94972.38;;;8.37;86.98
21395;BME280;10858;42.714;23.180;2022-11-09T02:04:20;94978.28;;;8.40;86.70
21395;BME280;10858;42.714;23.180;2022-11-09T02:06:48;94975.75;;;8.39;86.34
21395;BME280;10858;42.714;23.180;2022-11-09T02:09:44;94974.06;;;8.38;86.28
21395;BME280;10858;42.714;23.180;2022-11-09T02:12:07;94979.03;;;8.30;86.19
21395;BME280;10858;42.714;23.180;2022-11-09T02:14:34;94982.75;;;8.27;86.10
21395;BME280;10858;42.714;23.180;2022-11-09T02:17:02;94986.84;;;8.19;86.35
21395;BME280;10858;42.714;23.180;2022-11-09T02:19:28;94989.06;;;8.12;86.55
21395;BME280;10858;42.714;23.180;2022-11-09T02:21:54;94992.66;;;8.11;86.21
21395;BME280;10858;42.714;23.180;2022-11-09T02:24:21;94997.41;;;8.06;86.03
21395;BME280;10858;42.714;23.180;2022-11-09T02:26:50;94992.44;;;7.89;86.36
21395;BME280;10858;42.714;23.180;2022-11-09T02:29:19;94984.38;;;7.78;86.08
21395;BME280;10858;42.714;23.180;2022-11-09T02:32:03;94988.19;;;7.74;86.49
21395;BME280;10858;42.714;23.180;2022-11-09T02:34:30;94988.41;;;7.71;86.48
21395;BME280;10858;42.714;23.180;2022-11-09T02:36:56;94985.63;;;7.60;86.35
21395;BME280;10858;42.714;23.180;2022-11-09T02:39:25;94991.97;;;7.57;86.43
21395;BME280;10858;42.714;23.180;2022-11-09T02:42:02;94988.66;;;7.54;86.51
21395;BME280;10858;42.714;23.180;2022-11-09T02:44:36;94987.94;;;7.52;86.67
21395;BME280;10858;42.714;23.180;2022-11-09T02:47:04;94983.81;;;7.48;86.48
21395;BME280;10858;42.714;23.180;2022-11-09T02:49:30;94992.78;;;7.45;86.98
21395;BME280;10858;42.714;23.180;2022-11-09T02:51:56;94989.19;;;7.46;86.73
21395;BME280;10858;42.714;23.180;2022-11-09T02:54:22;94987.09;;;7.51;86.67
21395;BME280;10858;42.714;23.180;2022-11-09T02:56:49;94992.69;;;7.47;86.43
21395;BME280;10858;42.714;23.180;2022-11-09T02:59:15;94992.13;;;7.42;86.12
21395;BME280;10858;42.714;23.180;2022-11-09T03:01:41;94988.63;;;7.29;86.06
21395;BME280;10858;42.714;23.180;2022-11-09T03:04:07;94989.94;;;7.22;86.72
21395;BME280;10858;42.714;23.180;2022-11-09T03:06:33;94994.63;;;7.31;86.91
21395;BME280;10858;42.714;23.180;2022-11-09T03:09:02;95001.25;;;7.24;86.68
21395;BME280;10858;42.714;23.180;2022-11-09T03:11:28;94996.13;;;7.35;86.75
21395;BME280;10858;42.714;23.180;2022-11-09T03:13:55;94992.13;;;7.42;86.85
21395;BME280;10858;42.714;23.180;2022-11-09T03:16:21;94996.25;;;7.46;86.96
21395;BME280;10858;42.714;23.180;2022-11-09T03:18:47;94990.03;;;7.47;87.92
21395;BME280;10858;42.714;23.180;2022-11-09T03:21:14;94991.91;;;7.71;87.66
21395;BME280;10858;42.714;23.180;2022-11-09T03:23:40;94995.81;;;7.79;87.32
21395;BME280;10858;42.714;23.180;2022-11-09T03:26:06;94994.84;;;7.80;87.71
21395;BME280;10858;42.714;23.180;2022-11-09T03:28:33;95000.34;;;8.02;87.19
21395;BME280;10858;42.714;23.180;2022-11-09T03:30:59;94994.13;;;8.03;86.99
21395;BME280;10858;42.714;23.180;2022-11-09T03:33:25;94995.00;;;8.03;87.10
21395;BME280;10858;42.714;23.180;2022-11-09T03:35:51;94998.25;;;8.07;86.51
21395;BME280;10858;42.714;23.180;2022-11-09T03:38:17;95006.91;;;7.96;86.88
21395;BME280;10858;42.714;23.180;2022-11-09T03:40:44;95002.59;;;7.95;87.04
21395;BME280;10858;42.714;23.180;2022-11-09T03:43:10;95009.66;;;7.95;86.42
21395;BME280;10858;42.714;23.180;2022-11-09T03:45:36;94999.81;;;7.84;86.25
21395;BME280;10858;42.714;23.180;2022-11-09T03:48:02;95005.00;;;7.73;85.78
21395;BME280;10858;42.714;23.180;2022-11-09T03:50:31;95001.47;;;7.60;85.75
21395;BME280;10858;42.714;23.180;2022-11-09T03:52:58;95004.63;;;7.52;85.88
21395;BME280;10858;42.714;23.180;2022-11-09T03:55:24;95008.75;;;7.30;85.64
21395;BME280;10858;42.714;23.180;2022-11-09T03:57:51;95000.31;;;7.25;85.67
21395;BME280;10858;42.714;23.180;2022-11-09T04:00:21;95008.97;;;7.00;85.77
21395;BME280;10858;42.714;23.180;2022-11-09T04:02:48;95003.91;;;6.97;85.95
21395;BME280;10858;42.714;23.180;2022-11-09T04:05:14;95006.09;;;6.91;86.76
21395;BME280;10858;42.714;23.180;2022-11-09T04:07:51;95004.09;;;6.94;86.95
21395;BME280;10858;42.714;23.180;2022-11-09T04:10:18;95003.84;;;6.84;86.45
21395;BME280;10858;42.714;23.180;2022-11-09T04:12:45;95007.03;;;6.75;86.39
21395;BME280;10858;42.714;23.180;2022-11-09T04:15:12;95009.41;;;6.80;85.80
21395;BME280;10858;42.714;23.180;2022-11-09T04:17:38;95008.28;;;6.70;85.74
21395;BME280;10858;42.714;23.180;2022-11-09T04:20:06;95013.19;;;6.62;86.57
21395;BME280;10858;42.714;23.180;2022-11-09T04:22:32;95012.31;;;6.75;87.62
21395;BME280;10858;42.714;23.180;2022-11-09T04:24:58;95019.09;;;6.79;87.76
21395;BME280;10858;42.714;23.180;2022-11-09T04:27:25;95014.00;;;6.91;87.94
21395;BME280;10858;42.714;23.180;2022-11-09T04:29:51;95015.66;;;6.92;87.14
21395;BME280;10858;42.714;23.180;2022-11-09T04:32:17;95009.66;;;6.89;87.16
21395;BME280;10858;42.714;23.180;2022-11-09T04:34:43;95004.84;;;6.96;87.32
21395;BME280;10858;42.714;23.180;2022-11-09T04:37:10;95009.88;;;6.86;87.08
21395;BME280;10858;42.714;23.180;2022-11-09T04:39:36;95007.13;;;6.88;87.51
21395;BME280;10858;42.714;23.180;2022-11-09T04:42:02;95004.19;;;6.93;86.83
21395;BME280;10858;42.714;23.180;2022-11-09T04:44:28;95005.84;;;6.81;87.51
21395;BME280;10858;42.714;23.180;2022-11-09T04:46:55;95005.38;;;6.74;87.58
21395;BME280;10858;42.714;23.180;2022-11-09T04:49:21;95004.59;;;6.86;87.77
21395;BME280;10858;42.714;23.180;2022-11-09T04:51:48;95008.44;;;6.95;86.45
21395;BME280;10858;42.714;23.180;2022-11-09T04:54:15;95011.06;;;6.95;85.62
21395;BME280;10858;42.714;23.180;2022-11-09T04:56:41;95017.19;;;6.81;85.61
21395;BME280;10858;42.714;23.180;2022-11-09T04:59:08;95010.25;;;6.80;86.37
21395;BME280;10858;42.714;23.180;2022-11-09T05:01:34;95014.91;;;6.63;85.71
21395;BME280;10858;42.714;23.180;2022-11-09T05:04:00;95013.84;;;6.51;85.76
21395;BME280;10858;42.714;23.180;2022-11-09T05:06:26;95017.84;;;6.30;86.04
21395;BME280;10858;42.714;23.180;2022-11-09T05:09:00;95021.59;;;6.40;87.78
21395;BME280;10858;42.714;23.180;2022-11-09T05:11:27;95023.19;;;6.57;88.10
21395;BME280;10858;42.714;23.180;2022-11-09T05:13:53;95021.47;;;6.70;88.33
21395;BME280;10858;42.714;23.180;2022-11-09T05:16:19;95018.34;;;6.77;88.05
21395;BME280;10858;42.714;23.180;2022-11-09T05:18:46;95020.19;;;6.89;87.93
21395;BME280;10858;42.714;23.180;2022-11-09T05:21:12;95032.06;;;6.97;87.77
21395;BME280;10858;42.714;23.180;2022-11-09T05:23:38;95030.19;;;6.99;87.23
21395;BME280;10858;42.714;23.180;2022-11-09T05:26:24;95038.63;;;7.04;87.75
21395;BME280;10858;42.714;23.180;2022-11-09T05:28:50;95033.22;;;7.19;87.17
21395;BME280;10858;42.714;23.180;2022-11-09T05:31:18;95031.28;;;7.35;87.27
21395;BME280;10858;42.714;23.180;2022-11-09T05:33:46;95039.97;;;7.50;87.57
21395;BME280;10858;42.714;23.180;2022-11-09T05:36:12;95039.34;;;7.46;88.35
21395;BME280;10858;42.714;23.180;2022-11-09T05:38:39;95040.47;;;7.69;88.74
21395;BME280;10858;42.714;23.180;2022-11-09T05:41:05;95040.19;;;7.86;88.45
21395;BME280;10858;42.714;23.180;2022-11-09T05:43:31;95042.31;;;8.06;88.35
21395;BME280;10858;42.714;23.180;2022-11-09T05:45:57;95048.25;;;8.22;88.13
21395;BME280;10858;42.714;23.180;2022-11-09T05:48:23;95040.56;;;8.44;88.19
21395;BME280;10858;42.714;23.180;2022-11-09T05:50:49;95035.16;;;8.58;87.97
21395;BME280;10858;42.714;23.180;2022-11-09T05:53:16;95040.00;;;8.90;87.69
21395;BME280;10858;42.714;23.180;2022-11-09T05:55:42;95048.78;;;9.14;87.48
21395;BME280;10858;42.714;23.180;2022-11-09T05:58:09;95054.75;;;9.41;87.61
21395;BME280;10858;42.714;23.180;2022-11-09T06:00:35;95052.34;;;9.62;87.31
21395;BME280;10858;42.714;23.180;2022-11-09T06:03:07;95053.69;;;9.67;86.68
21395;BME280;10858;42.714;23.180;2022-11-09T06:05:35;95057.41;;;9.41;86.05
21395;BME280;10858;42.714;23.180;2022-11-09T06:08:03;95055.44;;;9.56;86.79
21395;BME280;10858;42.714;23.180;2022-11-09T06:10:29;95058.53;;;9.73;86.70
21395;BME280;10858;42.714;23.180;2022-11-09T06:12:56;95055.84;;;9.97;86.94
21395;BME280;10858;42.714;23.180;2022-11-09T06:15:22;95055.63;;;10.23;86.65
21395;BME280;10858;42.714;23.180;2022-11-09T06:17:52;95058.81;;;10.73;87.13
21395;BME280;10858;42.714;23.180;2022-11-09T06:20:19;95062.06;;;10.98;86.25
21395;BME280;10858;42.714;23.180;2022-11-09T06:22:57;95063.88;;;11.09;86.38
21395;BME280;10858;42.714;23.180;2022-11-09T06:25:25;95069.94;;;11.00;85.94
21395;BME280;10858;42.714;23.180;2022-11-09T06:27:53;95064.63;;;11.00;85.45
21395;BME280;10858;42.714;23.180;2022-11-09T06:30:20;95066.53;;;11.09;85.37
21395;BME280;10858;42.714;23.180;2022-11-09T06:32:47;95062.22;;;11.08;85.22
21395;BME280;10858;42.714;23.180;2022-11-09T06:35:14;95073.16;;;11.37;84.78
21395;BME280;10858;42.714;23.180;2022-11-09T06:37:40;95072.00;;;11.72;84.33
21395;BME280;10858;42.714;23.180;2022-11-09T06:40:07;95081.97;;;12.02;83.85
21395;BME280;10858;42.714;23.180;2022-11-09T06:42:33;95079.31;;;12.23;82.67
21395;BME280;10858;42.714;23.180;2022-11-09T06:44:59;95067.00;;;12.22;82.08
21395;BME280;10858;42.714;23.180;2022-11-09T06:47:27;95076.44;;;12.15;81.47
21395;BME280;10858;42.714;23.180;2022-11-09T06:49:53;95078.00;;;12.28;81.35
21395;BME280;10858;42.714;23.180;2022-11-09T06:52:20;95077.13;;;12.69;80.14
21395;BME280;10858;42.714;23.180;2022-11-09T06:54:46;95072.19;;;13.06;77.44
21395;BME280;10858;42.714;23.180;2022-11-09T06:57:12;95069.25;;;12.88;76.35
21395;BME280;10858;42.714;23.180;2022-11-09T06:59:38;95072.03;;;13.07;76.62
21395;BME280;10858;42.714;23.180;2022-11-09T07:02:04;95075.63;;;13.67;74.57
21395;BME280;10858;42.714;23.180;2022-11-09T07:04:31;95066.97;;;14.22;72.67
21395;BME280;10858;42.714;23.180;2022-11-09T07:06:57;95068.94;;;14.68;72.05
21395;BME280;10858;42.714;23.180;2022-11-09T07:09:23;95065.69;;;14.83;70.36
21395;BME280;10858;42.714;23.180;2022-11-09T07:11:50;95061.22;;;15.57;69.82
21395;BME280;10858;42.714;23.180;2022-11-09T07:14:16;95067.44;;;16.20;66.96
21395;BME280;10858;42.714;23.180;2022-11-09T07:16:42;95074.69;;;16.28;65.82
21395;BME280;10858;42.714;23.180;2022-11-09T07:19:08;95064.03;;;16.88;63.04
21395;BME280;10858;42.714;23.180;2022-11-09T07:21:35;95063.56;;;16.50;62.03
21395;BME280;10858;42.714;23.180;2022-11-09T07:24:01;95070.84;;;16.57;61.91
21395;BME280;10858;42.714;23.180;2022-11-09T07:26:27;95065.38;;;16.14;62.66
21395;BME280;10858;42.714;23.180;2022-11-09T07:28:53;95067.06;;;15.43;66.50
21395;BME280;10858;42.714;23.180;2022-11-09T07:31:20;95066.66;;;15.65;65.99
21395;BME280;10858;42.714;23.180;2022-11-09T07:33:47;95072.53;;;16.13;64.64
21395;BME280;10858;42.714;23.180;2022-11-09T07:36:14;95061.81;;;15.51;66.34
21395;BME280;10858;42.714;23.180;2022-11-09T07:38:40;95063.44;;;16.42;65.34
21395;BME280;10858;42.714;23.180;2022-11-09T07:41:06;95069.00;;;15.95;64.61
21395;BME280;10858;42.714;23.180;2022-11-09T07:43:32;95062.69;;;16.14;64.56
21395;BME280;10858;42.714;23.180;2022-11-09T07:46:03;95059.19;;;16.31;64.89
21395;BME280;10858;42.714;23.180;2022-11-09T07:48:29;95068.03;;;16.14;64.39
21395;BME280;10858;42.714;23.180;2022-11-09T07:50:56;95062.13;;;16.55;63.38
21395;BME280;10858;42.714;23.180;2022-11-09T07:53:22;95063.09;;;17.23;62.09
21395;BME280;10858;42.714;23.180;2022-11-09T07:55:56;95055.69;;;16.91;61.92
21395;BME280;10858;42.714;23.180;2022-11-09T07:58:24;95060.34;;;17.66;60.15
21395;BME280;10858;42.714;23.180;2022-11-09T08:00:50;95062.78;;;17.52;61.21
21395;BME280;10858;42.714;23.180;2022-11-09T08:03:18;95066.47;;;17.25;61.06
21395;BME280;10858;42.714;23.180;2022-11-09T08:05:44;95067.63;;;16.71;62.62
21395;BME280;10858;42.714;23.180;2022-11-09T08:08:11;95077.00;;;16.75;62.81
21395;BME280;10858;42.714;23.180;2022-11-09T08:10:38;95069.53;;;16.61;62.51
21395;BME280;10858;42.714;23.180;2022-11-09T08:13:06;95074.97;;;16.69;62.75
21395;BME280;10858;42.714;23.180;2022-11-09T08:15:34;95072.44;;;16.93;62.23
21395;BME280;10858;42.714;23.180;2022-11-09T08:18:06;95067.88;;;17.12;61.26
21395;BME280;10858;42.714;23.180;2022-11-09T08:20:33;95063.41;;;16.94;62.38
21395;BME280;10858;42.714;23.180;2022-11-09T08:23:00;95062.16;;;17.07;61.27
21395;BME280;10858;42.714;23.180;2022-11-09T08:25:26;95068.53;;;16.62;62.14
21395;BME280;10858;42.714;23.180;2022-11-09T08:27:54;95067.47;;;16.98;61.67
21395;BME280;10858;42.714;23.180;2022-11-09T08:30:20;95073.50;;;17.52;60.62
21395;BME280;10858;42.714;23.180;2022-11-09T08:32:48;95073.66;;;17.84;59.35
21395;BME280;10858;42.714;23.180;2022-11-09T08:35:19;95068.56;;;18.23;58.63
21395;BME280;10858;42.714;23.180;2022-11-09T08:37:47;95069.06;;;18.18;58.46
21395;BME280;10858;42.714;23.180;2022-11-09T08:40:15;95074.91;;;17.98;57.92
21395;BME280;10858;42.714;23.180;2022-11-09T08:42:42;95070.13;;;17.50;59.26
21395;BME280;10858;42.714;23.180;2022-11-09T08:45:09;95068.66;;;17.30;60.05
21395;BME280;10858;42.714;23.180;2022-11-09T08:47:36;95067.88;;;17.63;59.93
21395;BME280;10858;42.714;23.180;2022-11-09T08:50:04;95071.63;;;17.86;58.86
21395;BME280;10858;42.714;23.180;2022-11-09T08:52:31;95070.44;;;17.80;59.17
21395;BME280;10858;42.714;23.180;2022-11-09T08:54:58;95070.41;;;17.72;58.91
21395;BME280;10858;42.714;23.180;2022-11-09T08:57:24;95073.09;;;18.22;56.83
21395;BME280;10858;42.714;23.180;2022-11-09T08:59:51;95073.78;;;18.32;57.07
21395;BME280;10858;42.714;23.180;2022-11-09T09:02:24;95069.59;;;17.80;57.57
21395;BME280;10858;42.714;23.180;2022-11-09T09:04:50;95072.94;;;17.74;59.20
21395;BME280;10858;42.714;23.180;2022-11-09T09:07:17;95075.78;;;18.30;60.08
21395;BME280;10858;42.714;23.180;2022-11-09T09:09:44;95076.91;;;18.12;57.58
21395;BME280;10858;42.714;23.180;2022-11-09T09:12:10;95069.22;;;18.09;56.94
21395;BME280;10858;42.714;23.180;2022-11-09T09:14:36;95074.75;;;18.07;58.40
21395;BME280;10858;42.714;23.180;2022-11-09T09:17:03;95071.28;;;17.73;57.88
21395;BME280;10858;42.714;23.180;2022-11-09T09:19:29;95069.09;;;17.17;59.83
21395;BME280;10858;42.714;23.180;2022-11-09T09:21:55;95062.72;;;17.69;57.98
21395;BME280;10858;42.714;23.180;2022-11-09T09:24:22;95066.00;;;18.05;57.49
21395;BME280;10858;42.714;23.180;2022-11-09T09:26:48;95066.47;;;18.50;56.28
21395;BME280;10858;42.714;23.180;2022-11-09T09:29:14;95059.06;;;18.68;54.64
21395;BME280;10858;42.714;23.180;2022-11-09T09:31:41;95063.88;;;18.33;55.76
21395;BME280;10858;42.714;23.180;2022-11-09T09:34:07;95054.03;;;18.49;54.44
21395;BME280;10858;42.714;23.180;2022-11-09T09:36:34;95052.34;;;18.97;54.53
21395;BME280;10858;42.714;23.180;2022-11-09T09:39:00;95061.63;;;19.73;51.18
21395;BME280;10858;42.714;23.180;2022-11-09T09:44:12;95051.94;;;19.48;52.12
21395;BME280;10858;42.714;23.180;2022-11-09T09:47:16;95047.06;;;19.52;50.63
21395;BME280;10858;42.714;23.180;2022-11-09T09:50:00;95044.63;;;19.73;50.76
21395;BME280;10858;42.714;23.180;2022-11-09T09:52:32;95046.09;;;19.83;50.95
21395;BME280;10858;42.714;23.180;2022-11-09T09:57:34;95031.63;;;19.37;52.23
21395;BME280;10858;42.714;23.180;2022-11-09T10:00:04;95032.19;;;18.77;53.75
21395;BME280;10858;42.714;23.180;2022-11-09T10:02:35;95030.19;;;18.54;55.32
21395;BME280;10858;42.714;23.180;2022-11-09T10:05:06;95029.75;;;18.01;56.65
21395;BME280;10858;42.714;23.180;2022-11-09T10:13:49;95024.53;;;19.28;52.46
21395;BME280;10858;42.714;23.180;2022-11-09T10:25:23;95014.06;;;18.46;54.28
21395;BME280;10858;42.714;23.180;2022-11-09T10:28:13;95009.25;;;19.29;53.60
21395;BME280;10858;42.714;23.180;2022-11-09T10:30:40;95007.28;;;18.18;54.92
21395;BME280;10858;42.714;23.180;2022-11-09T10:35:43;95002.31;;;18.72;55.07
21395;BME280;10858;42.714;23.180;2022-11-09T10:38:22;95002.91;;;18.09;54.60
21395;BME280;10858;42.714;23.180;2022-11-09T10:41:04;94994.22;;;18.23;55.97
21395;BME280;10858;42.714;23.180;2022-11-09T10:43:35;95002.25;;;18.15;56.37
21395;BME280;10858;42.714;23.180;2022-11-09T10:46:06;94992.88;;;18.92;53.48
21395;BME280;10858;42.714;23.180;2022-11-09T10:48:35;94993.88;;;18.91;53.03
21395;BME280;10858;42.714;23.180;2022-11-09T10:51:03;94989.53;;;18.41;54.10
21395;BME280;10858;42.714;23.180;2022-11-09T10:53:33;94987.44;;;19.24;52.49
21395;BME280;10858;42.714;23.180;2022-11-09T10:56:19;94985.97;;;18.89;52.88
21395;BME280;10858;42.714;23.180;2022-11-09T10:58:52;94977.75;;;18.75;54.46
21395;BME280;10858;42.714;23.180;2022-11-09T11:01:23;94975.06;;;18.83;52.29
21395;BME280;10858;42.714;23.180;2022-11-09T11:03:53;94974.22;;;18.26;54.03
21395;BME280;10858;42.714;23.180;2022-11-09T11:09:14;94969.34;;;18.05;55.40
21395;BME280;10858;42.714;23.180;2022-11-09T11:11:39;94970.03;;;18.31;54.21
21395;BME280;10858;42.714;23.180;2022-11-09T11:14:09;94965.38;;;18.49;54.52
21395;BME280;10858;42.714;23.180;2022-11-09T11:16:37;94967.34;;;18.88;53.13
21395;BME280;10858;42.714;23.180;2022-11-09T11:19:04;94965.34;;;18.65;53.76
21395;BME280;10858;42.714;23.180;2022-11-09T11:27:20;94962.38;;;19.23;51.89
21395;BME280;10858;42.714;23.180;2022-11-09T11:32:33;94952.91;;;18.64;53.46
21395;BME280;10858;42.714;23.180;2022-11-09T11:34:59;94951.91;;;18.65;53.92
21395;BME280;10858;42.714;23.180;2022-11-09T11:37:50;94950.66;;;18.92;53.36
21395;BME280;10858;42.714;23.180;2022-11-09T11:48:31;94937.59;;;18.81;53.09
21395;BME280;10858;42.714;23.180;2022-11-09T11:51:12;94931.53;;;18.87;52.54
21395;BME280;10858;42.714;23.180;2022-11-09T11:54:13;94940.41;;;19.04;52.38
21395;BME280;10858;42.714;23.180;2022-11-09T11:57:00;94934.94;;;19.28;51.08
21395;BME280;10858;42.714;23.180;2022-11-09T12:02:30;94930.94;;;19.63;51.59
21395;BME280;10858;42.714;23.180;2022-11-09T12:08:08;94920.22;;;20.30;48.88
21395;BME280;10858;42.714;23.180;2022-11-09T12:16:23;94913.63;;;20.56;48.89
21395;BME280;10858;42.714;23.180;2022-11-09T12:24:57;94913.69;;;21.79;45.69
21395;BME280;10858;42.714;23.180;2022-11-09T12:30:15;94911.72;;;22.65;43.07
21395;BME280;10858;42.714;23.180;2022-11-09T12:33:02;94905.59;;;22.78;42.96
21395;BME280;10858;42.714;23.180;2022-11-09T12:35:37;94904.78;;;22.84;42.55
21395;BME280;10858;42.714;23.180;2022-11-09T12:38:27;94904.03;;;22.27;43.16
21395;BME280;10858;42.714;23.180;2022-11-09T12:41:01;94901.16;;;22.98;42.02
21395;BME280;10858;42.714;23.180;2022-11-09T12:46:13;94900.53;;;24.44;39.20
21395;BME280;10858;42.714;23.180;2022-11-09T12:48:42;94899.72;;;24.70;38.59
21395;BME280;10858;42.714;23.180;2022-11-09T12:51:10;94895.94;;;24.71;38.46
21395;BME280;10858;42.714;23.180;2022-11-09T12:53:38;94900.19;;;23.40;40.83
21395;BME280;10858;42.714;23.180;2022-11-09T12:58:40;94902.50;;;23.49;40.31
21395;BME280;10858;42.714;23.180;2022-11-09T13:01:10;94901.56;;;23.70;39.68
21395;BME280;10858;42.714;23.180;2022-11-09T13:03:50;94900.50;;;24.18;39.01
21395;BME280;10858;42.714;23.180;2022-11-09T13:06:23;94892.63;;;24.95;37.08
21395;BME280;10858;42.714;23.180;2022-11-09T13:16:54;94891.72;;;21.46;45.00
21395;BME280;10858;42.714;23.180;2022-11-09T13:38:27;94878.88;;;21.48;44.44
21395;BME280;10858;42.714;23.180;2022-11-09T13:43:27;94881.03;;;20.28;47.35
21395;BME280;10858;42.714;23.180;2022-11-09T13:46:01;94886.91;;;19.78;48.26
21395;BME280;10858;42.714;23.180;2022-11-09T13:48:58;94883.97;;;19.34;49.95
21395;BME280;10858;42.714;23.180;2022-11-09T13:54:34;94883.41;;;18.53;51.71
21395;BME280;10858;42.714;23.180;2022-11-09T13:57:04;94887.94;;;18.29;52.70
21395;BME280;10858;42.714;23.180;2022-11-09T13:59:38;94889.09;;;18.26;52.71
21395;BME280;10858;42.714;23.180;2022-11-09T14:02:25;94888.13;;;18.03;53.47
21395;BME280;10858;42.714;23.180;2022-11-09T14:04:51;94889.47;;;17.83;54.02
21395;BME280;10858;42.714;23.180;2022-11-09T14:07:23;94881.41;;;17.83;54.36
21395;BME280;10858;42.714;23.180;2022-11-09T14:21:55;94882.19;;;17.01;57.12
21395;BME280;10858;42.714;23.180;2022-11-09T14:23:51;94885.00;;;16.92;57.43
21395;BME280;10858;42.714;23.180;2022-11-09T14:26:23;94884.47;;;16.88;58.21
21395;BME280;10858;42.714;23.180;2022-11-09T14:28:50;94881.81;;;16.88;58.52
21395;BME280;10858;42.714;23.180;2022-11-09T14:31:29;94882.75;;;16.71;59.05
21395;BME280;10858;42.714;23.180;2022-11-09T14:34:03;94883.84;;;16.35;60.20
21395;BME280;10858;42.714;23.180;2022-11-09T14:36:32;94887.66;;;16.07;61.53
21395;BME280;10858;42.714;23.180;2022-11-09T14:39:04;94885.47;;;15.85;62.40
21395;BME280;10858;42.714;23.180;2022-11-09T14:41:31;94889.91;;;15.59;63.43
21395;BME280;10858;42.714;23.180;2022-11-09T14:43:59;94887.78;;;15.45;63.84
21395;BME280;10858;42.714;23.180;2022-11-09T14:46:27;94903.44;;;15.12;65.05
21395;BME280;10858;42.714;23.180;2022-11-09T14:49:00;94893.34;;;15.06;65.04
21395;BME280;10858;42.714;23.180;2022-11-09T14:51:36;94901.25;;;14.71;66.43
21395;BME280;10858;42.714;23.180;2022-11-09T14:54:09;94891.13;;;14.38;67.82
21395;BME280;10858;42.714;23.180;2022-11-09T14:56:37;94896.94;;;14.05;68.87
21395;BME280;10858;42.714;23.180;2022-11-09T14:59:06;94892.63;;;13.85;69.68